Time;durP1;ratioP1;P1;durP2;ratioP2;P2;SDS_P1;SDS_P2;PMS_P1;PMS_P2;Temp;Humidity;BMP_temperature;BMP_pressure;BME280_temperature;BME280_humidity;BME280_pressure;Samples;Min_cycle;Max_cycle;Signal;HPM_P1;HPM_P2
2022/10/14 00:01:08;;;;;;;290.65;33.40;;;;;;;;;;5054630;28;20423;-77
2022/10/14 00:03:34;;;;;;;303.45;31.10;;;;;;;;;;5072117;28;20425;-76
2022/10/14 00:06:07;;;;;;;305.40;31.52;;;12.30;99.90;;;;;;5070757;28;20939;-76
2022/10/14 00:08:33;;;;;;;339.55;30.67;;;;;;;;;;5071824;28;20486;-76
2022/10/14 00:11:08;;;;;;;334.50;32.50;;;12.20;99.90;;;;;;5056088;28;20427;-76
2022/10/14 00:13:34;;;;;;;310.95;30.88;;;;;;;;;;5054996;28;20420;-77
2022/10/14 00:16:01;;;;;;;326.52;32.70;;;12.20;99.90;;;;;;5071217;28;20434;-76
2022/10/14 00:18:27;;;;;;;309.90;31.10;;;;;;;;;;5070504;28;20791;-76
2022/10/14 00:20:54;;;;;;;239.75;30.90;;;;;;;;;;5054736;28;20999;-76
2022/10/14 00:23:21;;;;;;;289.97;33.80;;;;;;;;;;5072045;28;20923;-76
2022/10/14 00:25:47;;;;;;;320.40;35.60;;;;;;;;;;5056006;28;20431;-76
2022/10/14 00:28:12;;;;;;;343.90;35.47;;;12.20;99.90;;;;;;5071277;28;20915;-77
2022/10/14 00:30:38;;;;;;;410.27;37.28;;;;;;;;;;5071625;28;20420;-77
2022/10/14 00:33:04;;;;;;;330.88;35.92;;;12.30;99.90;;;;;;5069453;28;20432;-77
2022/10/14 00:35:33;;;;;;;323.60;32.90;;;;;;;;;;5053729;28;20538;-78
2022/10/14 00:37:59;;;;;;;428.38;38.72;;;12.30;99.90;;;;;;5055772;28;20435;-77
2022/10/14 00:40:25;;;;;;;243.77;30.63;;;;;;;;;;5069346;28;20474;-77
2022/10/14 00:42:52;;;;;;;213.65;28.88;;;;;;;;;;5071654;28;20450;-77
2022/10/14 00:45:22;;;;;;;252.93;30.57;;;;;;;;;;5054660;28;20947;-77
2022/10/14 00:47:49;;;;;;;235.70;30.85;;;;;;;;;;5055151;28;20826;-77
2022/10/14 00:50:16;;;;;;;325.52;36.75;;;;;;;;;;5066357;28;20985;-77
2022/10/14 00:52:43;;;;;;;279.98;28.95;;;12.20;99.90;;;;;;5071582;28;20410;-77
2022/10/14 00:55:14;;;;;;;303.27;33.13;;;12.00;99.90;;;;;;5055738;28;20444;-77
2022/10/14 00:57:40;;;;;;;477.13;43.83;;;12.10;99.90;;;;;;5071224;28;20400;-77
2022/10/14 01:00:10;;;;;;;353.30;34.75;;;;;;;;;;5070941;28;20473;-76
2022/10/14 01:02:36;;;;;;;471.23;42.17;;;;;;;;;;5071691;28;20472;-77
2022/10/14 01:05:04;;;;;;;505.57;45.87;;;12.00;99.90;;;;;;5104762;28;20423;-76
2022/10/14 01:07:32;;;;;;;548.33;47.75;;;11.60;99.90;;;;;;5071699;28;20408;-77
2022/10/14 01:10:28;;;;;;;571.78;47.42;;;12.00;99.90;;;;;;5068884;28;20424;-77
2022/10/14 01:13:03;;;;;;;628.72;56.42;;;;;;;;;;5071825;28;20470;-77
2022/10/14 01:15:38;;;;;;;642.58;57.35;;;;;;;;;;5071899;28;20472;-77
2022/10/14 01:18:25;;;;;;;598.60;59.17;;;11.80;99.90;;;;;;5070228;28;20427;-77
2022/10/14 01:20:57;;;;;;;464.75;46.75;;;11.90;99.90;;;;;;5068982;28;20442;-78
2022/10/14 01:23:45;;;;;;;398.13;43.80;;;11.90;99.90;;;;;;5071395;28;20969;-78
2022/10/14 01:26:42;;;;;;;653.17;57.13;;;11.60;99.90;;;;;;5070730;28;20438;-77
2022/10/14 01:29:17;;;;;;;473.75;44.92;;;;;;;;;;5070270;28;20511;-77
2022/10/14 01:32:01;;;;;;;563.60;50.20;;;;;;;;;;5054426;28;20525;-77
2022/10/14 01:34:32;;;;;;;360.33;40.60;;;11.80;99.90;;;;;;5052570;28;20424;-77
2022/10/14 01:37:02;;;;;;;515.05;51.60;;;;;;;;;;5054974;28;20462;-77
2022/10/14 01:39:32;;;;;;;596.75;51.83;;;;;;;;;;5068715;28;20419;-77
2022/10/14 01:42:06;;;;;;;593.60;51.73;;;11.50;99.90;;;;;;5070338;28;20478;-77
2022/10/14 01:44:35;;;;;;;469.88;41.28;;;11.60;99.90;;;;;;5071395;28;20423;-77
2022/10/14 01:47:01;;;;;;;371.60;38.65;;;;;;;;;;5090673;28;20414;-77
2022/10/14 01:49:34;;;;;;;482.75;43.25;;;;;;;;;;5073091;28;20809;-77
2022/10/14 01:52:21;;;;;;;412.52;37.03;;;11.40;99.90;;;;;;5091434;28;20508;-77
2022/10/14 01:54:49;;;;;;;424.05;38.50;;;;;;;;;;5056981;28;20433;-77
2022/10/14 01:57:18;;;;;;;438.23;40.67;;;;;;;;;;5091275;28;20485;-77
2022/10/14 01:59:46;;;;;;;344.20;34.47;;;11.40;99.90;;;;;;5072291;28;20917;-77
2022/10/14 02:02:12;;;;;;;332.08;33.47;;;;;;;;;;5072742;28;20428;-77
2022/10/14 02:04:39;;;;;;;337.37;35.07;;;;;;;;;;5074133;28;20429;-77
2022/10/14 02:07:05;;;;;;;371.45;36.30;;;;;;;;;;5072774;28;20424;-77
2022/10/14 02:09:31;;;;;;;503.48;41.30;;;;;;;;;;5089386;28;20461;-77
2022/10/14 02:12:18;;;;;;;592.58;47.10;;;11.10;99.90;;;;;;5107208;28;20422;-77
2022/10/14 02:14:52;;;;;;;466.90;38.90;;;;;;;;;;5053665;28;20505;-77
2022/10/14 02:17:18;;;;;;;527.42;43.95;;;;;;;;;;5091797;28;20457;-76
2022/10/14 02:19:54;;;;;;;415.90;37.83;;;;;;;;;;5073023;28;20484;-76
2022/10/14 02:22:20;;;;;;;415.98;40.33;;;;;;;;;;5073313;28;20501;-76
2022/10/14 02:24:49;;;;;;;529.53;44.90;;;;;;;;;;5073631;28;20904;-77
2022/10/14 02:27:17;;;;;;;448.93;40.37;;;11.80;99.90;;;;;;5075911;28;20910;-76
2022/10/14 02:29:45;;;;;;;597.08;50.22;;;;;;;;;;5071638;28;20491;-76
2022/10/14 02:32:15;;;;;;;641.55;53.38;;;11.60;99.90;;;;;;5072720;28;20919;-76
2022/10/14 02:34:43;;;;;;;495.03;39.67;;;;;;;;;;5073561;28;20441;-76
2022/10/14 02:37:10;;;;;;;557.33;41.07;;;11.30;99.90;;;;;;5071213;28;20421;-77
2022/10/14 02:39:38;;;;;;;578.22;41.38;;;;;;;;;;5072298;28;20484;-76
2022/10/14 02:42:05;;;;;;;649.38;42.35;;;;;;;;;;5071928;28;20948;-77
2022/10/14 02:44:31;;;;;;;703.30;46.90;;;;;;;;;;5073519;28;20425;-77
2022/10/14 02:46:57;;;;;;;513.65;35.00;;;;;;;;;;5072861;28;20491;-76
2022/10/14 02:49:23;;;;;;;576.60;41.87;;;;;;;;;;5089709;28;20504;-76
2022/10/14 02:51:49;;;;;;;389.02;32.40;;;11.20;99.90;;;;;;5073208;28;20773;-75
2022/10/14 02:54:15;;;;;;;398.17;32.45;;;;;;;;;;5073490;28;20529;-77
2022/10/14 02:56:41;;;;;;;409.08;31.10;;;;;;;;;;5070865;28;20449;-77
2022/10/14 02:59:06;;;;;;;400.40;32.58;;;11.40;99.90;;;;;;5067410;28;20425;-77
2022/10/14 03:01:33;;;;;;;460.10;34.42;;;;;;;;;;5075148;28;20433;-77
2022/10/14 03:03:59;;;;;;;526.75;43.17;;;;;;;;;;5073504;28;20401;-77
2022/10/14 03:06:25;;;;;;;457.58;38.17;;;;;;;;;;5090317;28;20455;-77
2022/10/14 03:08:51;;;;;;;359.60;32.78;;;;;;;;;;5037869;28;20416;-77
2022/10/14 03:11:17;;;;;;;324.13;32.00;;;;;;;;;;5088467;28;20961;-77
2022/10/14 03:13:43;;;;;;;496.75;40.38;;;;;;;;;;5089354;28;20414;-77
2022/10/14 03:16:09;;;;;;;386.15;34.78;;;;;;;;;;5094176;28;20474;-77
2022/10/14 03:18:35;;;;;;;343.65;31.65;;;;;;;;;;5075378;28;20429;-76
2022/10/14 03:21:01;;;;;;;318.88;29.33;;;;;;;;;;5093454;28;20426;-76
2022/10/14 03:23:27;;;;;;;288.70;28.70;;;;;;;;;;5094076;28;20409;-77
2022/10/14 03:25:53;;;;;;;280.90;28.20;;;;;;;;;;5073301;28;20422;-77
2022/10/14 03:28:19;;;;;;;350.25;31.10;;;;;;;;;;5090856;28;21002;-77
2022/10/14 03:30:45;;;;;;;349.23;31.65;;;;;;;;;;5077320;28;20425;-76
2022/10/14 03:33:11;;;;;;;322.95;30.30;;;;;;;;;;5079297;28;20797;-76
2022/10/14 03:35:37;;;;;;;400.70;34.20;;;;;;;;;;5076982;28;20838;-77
2022/10/14 03:38:05;;;;;;;288.13;27.95;;;;;;;;;;5075663;28;20759;-77
2022/10/14 03:40:31;;;;;;;260.70;25.67;;;10.50;99.90;;;;;;5093072;28;20413;-76
2022/10/14 03:42:58;;;;;;;299.77;29.20;;;;;;;;;;5076078;28;20979;-76
2022/10/14 03:45:25;;;;;;;226.20;23.13;;;;;;;;;;5110393;28;20921;-76
2022/10/14 03:47:51;;;;;;;315.38;27.27;;;;;;;;;;5076152;28;20482;-76
2022/10/14 03:50:17;;;;;;;293.73;23.70;;;;;;;;;;5041591;28;20471;-77
2022/10/14 03:52:42;;;;;;;398.13;28.95;;;10.70;99.90;;;;;;5077000;28;20767;-76
2022/10/14 03:55:09;;;;;;;333.63;28.45;;;;;;;;;;5058945;28;20505;-76
2022/10/14 03:57:35;;;;;;;273.27;30.13;;;;;;;;;;5073704;28;20417;-76
2022/10/14 04:00:01;;;;;;;306.00;28.73;;;;;;;;;;5058626;28;20426;-76
2022/10/14 04:02:27;;;;;;;309.80;28.37;;;;;;;;;;5075154;28;20482;-76
2022/10/14 04:04:53;;;;;;;318.48;29.83;;;;;;;;;;5075617;28;20500;-76
2022/10/14 04:07:18;;;;;;;306.15;30.35;;;10.60;99.90;;;;;;5075908;28;20398;-77
2022/10/14 04:09:44;;;;;;;251.70;27.80;;;;;;;;;;5076804;28;20418;-77
2022/10/14 04:12:11;;;;;;;210.30;27.23;;;;;;;;;;5075843;28;20849;-76
2022/10/14 04:14:37;;;;;;;405.48;37.30;;;;;;;;;;5091493;28;20426;-76
2022/10/14 04:17:03;;;;;;;227.65;28.58;;;;;;;;;;5075668;28;20505;-76
2022/10/14 04:19:30;;;;;;;361.23;34.05;;;;;;;;;;5057688;28;20865;-76
2022/10/14 04:21:56;;;;;;;282.55;31.70;;;;;;;;;;5075121;28;20446;-76
2022/10/14 04:24:22;;;;;;;330.02;31.63;;;;;;;;;;5072356;28;20430;-77
2022/10/14 04:26:51;;;;;;;345.75;34.30;;;;;;;;;;5073554;28;20418;-77
2022/10/14 04:29:18;;;;;;;323.45;32.33;;;;;;;;;;5076519;28;20421;-77
2022/10/14 04:31:44;;;;;;;483.88;37.25;;;;;;;;;;5090477;28;20417;-77
2022/10/14 04:34:11;;;;;;;260.35;29.48;;;;;;;;;;5075707;28;20870;-76
2022/10/14 04:36:37;;;;;;;377.42;33.28;;;;;;;;;;5093199;28;20398;-76
2022/10/14 04:39:04;;;;;;;356.52;32.65;;;9.90;99.90;;;;;;5090271;28;20417;-76
2022/10/14 04:41:31;;;;;;;369.95;33.58;;;;;;;;;;5091126;28;20426;-76
2022/10/14 04:43:57;;;;;;;350.75;31.08;;;;;;;;;;5074167;28;20445;-77
2022/10/14 04:46:23;;;;;;;428.50;36.50;;;;;;;;;;5075723;28;20476;-76
2022/10/14 04:48:49;;;;;;;369.35;32.85;;;;;;;;;;5109105;28;20410;-77
2022/10/14 04:51:15;;;;;;;441.10;36.50;;;;;;;;;;5074972;28;20422;-77
2022/10/14 04:53:41;;;;;;;439.30;36.75;;;;;;;;;;5072113;28;20770;-76
2022/10/14 04:56:07;;;;;;;417.45;36.40;;;;;;;;;;5059206;28;20746;-77
2022/10/14 04:58:33;;;;;;;364.53;32.53;;;10.30;99.90;;;;;;5075377;28;20445;-76
2022/10/14 05:00:59;;;;;;;338.40;33.23;;;10.40;99.90;;;;;;5075246;28;20453;-76
2022/10/14 05:03:25;;;;;;;397.37;32.83;;;;;;;;;;5058670;28;20409;-75
2022/10/14 05:05:51;;;;;;;383.97;34.70;;;;;;;;;;5074837;28;20850;-77
2022/10/14 05:08:17;;;;;;;420.63;35.53;;;;;;;;;;5072956;28;20414;-76
2022/10/14 05:10:43;;;;;;;349.75;34.40;;;;;;;;;;5074657;28;20422;-77
2022/10/14 05:13:09;;;;;;;406.05;35.78;;;;;;;;;;5108636;28;20421;-76
2022/10/14 05:15:35;;;;;;;388.60;33.67;;;;;;;;;;5074881;28;20463;-76
2022/10/14 05:18:01;;;;;;;430.00;35.15;;;;;;;;;;5073946;28;20559;-76
2022/10/14 05:20:27;;;;;;;394.95;34.08;;;;;;;;;;5058148;28;20437;-76
2022/10/14 05:22:53;;;;;;;425.13;34.72;;;10.50;99.90;;;;;;5092030;28;20417;-77
2022/10/14 05:25:19;;;;;;;343.45;32.78;;;;;;;;;;5090649;28;20426;-76
2022/10/14 05:27:45;;;;;;;404.60;34.20;;;;;;;;;;5073278;28;20417;-76
2022/10/14 05:30:12;;;;;;;381.27;32.05;;;;;;;;;;5074320;28;20422;-76
2022/10/14 05:32:38;;;;;;;305.73;31.20;;;;;;;;;;5074530;28;20452;-76
2022/10/14 05:35:04;;;;;;;344.90;33.22;;;;;;;;;;5074097;28;20421;-77
2022/10/14 05:37:30;;;;;;;407.73;35.15;;;;;;;;;;5074020;28;20775;-77
2022/10/14 05:39:57;;;;;;;410.23;37.15;;;;;;;;;;5056704;28;20739;-77
2022/10/14 05:42:23;;;;;;;409.92;37.95;;;;;;;;;;5073888;28;20421;-77
2022/10/14 05:44:49;;;;;;;353.10;35.60;;;;;;;;;;5057998;28;20422;-77
2022/10/14 05:47:15;;;;;;;367.88;36.85;;;;;;;;;;5075620;28;20433;-77
2022/10/14 05:49:41;;;;;;;316.17;35.85;;;;;;;;;;5073921;28;20910;-77
2022/10/14 05:52:08;;;;;;;342.30;34.78;;;;;;;;;;5071219;28;20778;-76
2022/10/14 05:54:35;;;;;;;347.00;32.70;;;;;;;;;;5073617;28;20478;-76
2022/10/14 05:57:01;;;;;;;396.17;32.38;;;;;;;;;;5091888;28;20501;-76
2022/10/14 05:59:28;;;;;;;361.83;33.35;;;;;;;;;;5071921;28;20478;-76
2022/10/14 06:01:55;;;;;;;369.08;32.00;;;;;;;;;;5070670;28;20455;-77
2022/10/14 06:04:22;;;;;;;445.25;34.35;;;;;;;;;;5055181;28;20454;-77
2022/10/14 06:06:48;;;;;;;483.45;37.03;;;;;;;;;;5071436;28;20418;-77
2022/10/14 06:09:14;;;;;;;481.83;38.90;;;;;;;;;;5074481;28;20406;-77
2022/10/14 06:11:40;;;;;;;448.42;37.28;;;;;;;;;;5070942;28;20421;-77
2022/10/14 06:14:06;;;;;;;456.92;37.38;;;;;;;;;;5098525;28;20422;-77
2022/10/14 06:16:32;;;;;;;400.52;36.65;;;;;;;;;;5057236;28;20901;-77
2022/10/14 06:18:58;;;;;;;492.20;41.25;;;;;;;;;;5084235;28;20415;-76
2022/10/14 06:21:25;;;;;;;510.30;41.42;;;;;;;;;;5077212;28;20812;-73
2022/10/14 06:23:50;;;;;;;948.20;77.90;;;10.50;99.90;;;;;;5070145;28;20415;-72
2022/10/14 06:26:17;;;;;;;610.53;54.03;;;;;;;;;;5091545;28;20416;-73
2022/10/14 06:28:43;;;;;;;640.42;53.03;;;;;;;;;;5071319;28;20426;-74
2022/10/14 06:31:09;;;;;;;444.13;41.45;;;;;;;;;;5085052;28;20475;-74
2022/10/14 06:33:35;;;;;;;986.43;83.37;;;;;;;;;;5073537;28;20419;-74
2022/10/14 06:36:05;;;;;;;727.20;68.47;;;10.60;99.90;;;;;;5073659;28;20405;-75
2022/10/14 06:38:32;;;;;;;423.33;43.13;;;;;;;;;;5073497;28;20410;-74
2022/10/14 06:40:58;;;;;;;344.13;39.65;;;;;;;;;;5064824;28;20936;-74
2022/10/14 06:43:24;;;;;;;402.73;44.22;;;;;;;;;;5071016;28;20424;-74
2022/10/14 06:45:51;;;;;;;439.20;47.63;;;;;;;;;;5040550;28;20516;-73
2022/10/14 06:48:17;;;;;;;467.05;48.10;;;10.50;99.90;;;;;;5073223;28;20777;-74
2022/10/14 06:50:43;;;;;;;415.40;45.67;;;;;;;;;;5052913;28;20409;-74
2022/10/14 06:53:09;;;;;;;392.65;46.95;;;;;;;;;;5058388;28;20418;-74
2022/10/14 06:55:35;;;;;;;424.10;49.03;;;10.70;99.90;;;;;;5071261;28;20418;-74
2022/10/14 06:58:01;;;;;;;365.27;47.50;;;;;;;;;;5055704;28;20961;-74
2022/10/14 07:00:27;;;;;;;342.77;46.28;;;;;;;;;;5069619;28;21035;-74
2022/10/14 07:02:53;;;;;;;391.75;49.80;;;;;;;;;;5055534;28;20835;-74
2022/10/14 07:05:19;;;;;;;290.65;44.75;;;;;;;;;;5072448;28;20418;-74
2022/10/14 07:07:45;;;;;;;331.03;47.97;;;;;;;;;;5071463;28;20504;-75
2022/10/14 07:10:11;;;;;;;368.88;49.00;;;11.00;99.90;;;;;;5065444;28;20496;-75
2022/10/14 07:12:37;;;;;;;300.52;46.15;;;;;;;;;;5069733;28;20880;-74
2022/10/14 07:15:04;;;;;;;280.55;46.08;;;11.00;99.90;;;;;;5072861;28;20397;-75
2022/10/14 07:17:30;;;;;;;328.38;49.08;;;;;;;;;;5068538;28;20790;-74
2022/10/14 07:19:56;;;;;;;279.73;46.50;;;;;;;;;;5068695;28;20425;-72
2022/10/14 07:22:22;;;;;;;323.52;48.55;;;;;;;;;;5070395;28;20429;-74
2022/10/14 07:24:48;;;;;;;295.65;48.17;;;;;;;;;;5070634;28;20446;-74
2022/10/14 07:27:19;;;;;;;276.33;47.95;;;11.10;99.90;;;;;;5073291;28;20519;-75
2022/10/14 07:29:45;;;;;;;216.43;44.90;;;;;;;;;;5071457;28;20770;-74
2022/10/14 07:32:11;;;;;;;225.33;44.93;;;;;;;;;;5058468;28;20453;-74
2022/10/14 07:34:36;;;;;;;247.13;47.03;;;11.10;99.90;;;;;;5051734;28;20453;-74
2022/10/14 07:37:03;;;;;;;251.07;47.40;;;;;;;;;;5071509;28;20417;-74
2022/10/14 07:39:29;;;;;;;233.43;47.30;;;;;;;;;;5069442;28;20975;-74
2022/10/14 07:41:55;;;;;;;245.32;47.55;;;;;;;;;;5071650;28;20508;-74
2022/10/14 07:44:21;;;;;;;220.00;46.63;;;11.10;99.90;;;;;;5068901;28;20884;-74
2022/10/14 07:46:47;;;;;;;186.05;44.58;;;;;;;;;;5044536;28;20414;-74
2022/10/14 07:49:17;;;;;;;151.98;42.28;;;10.80;99.90;;;;;;5061451;28;20965;-74
2022/10/14 07:51:43;;;;;;;148.70;42.08;;;11.30;99.90;;;;;;5106499;28;20447;-74
2022/10/14 07:54:20;;;;;;;127.75;38.88;;;;;;;;;;5070671;28;20973;-74
2022/10/14 07:56:49;;;;;;;138.10;39.08;;;;;;;;;;5073021;28;20424;-74
2022/10/14 07:59:17;;;;;;;131.88;39.22;;;11.30;99.90;;;;;;5071476;28;20443;-75
2022/10/14 08:01:46;;;;;;;147.52;41.30;;;;;;;;;;5075831;28;20390;-73
2022/10/14 08:04:12;;;;;;;153.13;43.70;;;;;;;;;;5073321;28;20463;-74
2022/10/14 08:06:38;;;;;;;140.60;42.88;;;;;;;;;;5043056;28;20404;-73
2022/10/14 08:09:04;;;;;;;147.05;41.40;;;;;;;;;;5075497;28;20833;-73
2022/10/14 08:11:31;;;;;;;172.13;45.00;;;;;;;;;;5074352;28;20499;-73
2022/10/14 08:13:59;;;;;;;169.00;42.63;;;;;;;;;;5074047;28;20425;-73
2022/10/14 08:16:30;;;;;;;140.48;42.50;;;11.40;99.90;;;;;;5094210;28;20418;-73
2022/10/14 08:18:57;;;;;;;179.25;43.95;;;;;;;;;;5073708;28;20455;-73
2022/10/14 08:21:23;;;;;;;149.63;42.05;;;;;;;;;;5089625;28;20418;-74
2022/10/14 08:23:50;;;;;;;153.17;42.10;;;;;;;;;;5076031;28;20489;-74
2022/10/14 08:26:21;;;;;;;149.82;41.13;;;;;;;;;;5073993;28;20441;-73
2022/10/14 08:28:49;;;;;;;134.85;38.92;;;11.50;99.90;;;;;;5057920;28;20405;-73
2022/10/14 08:31:15;;;;;;;128.93;38.72;;;;;;;;;;5093093;28;20765;-73
2022/10/14 08:33:41;;;;;;;118.93;37.72;;;;;;;;;;5108588;28;20413;-73
2022/10/14 08:36:07;;;;;;;116.35;37.55;;;;;;;;;;5076020;28;20477;-72
2022/10/14 08:38:33;;;;;;;125.73;37.97;;;;;;;;;;5075982;28;20401;-73
2022/10/14 08:41:09;;;;;;;114.53;37.03;;;;;;;;;;5072674;28;20421;-72
2022/10/14 08:43:52;;;;;;;128.68;39.95;;;12.00;99.90;;;;;;5076166;28;20788;-73
2022/10/14 08:46:23;;;;;;;116.72;38.30;;;;;;;;;;5078369;28;20422;-73
2022/10/14 08:48:54;;;;;;;123.63;40.03;;;12.00;99.90;;;;;;5071193;28;20410;-73
2022/10/14 08:51:20;;;;;;;108.47;38.28;;;;;;;;;;5058059;28;20421;-73
2022/10/14 08:53:55;;;;;;;104.28;36.92;;;;;;;;;;5075647;28;20398;-73
2022/10/14 08:56:22;;;;;;;98.15;35.55;;;12.20;99.90;;;;;;5092335;28;20402;-73
2022/10/14 08:58:50;;;;;;;98.57;37.10;;;;;;;;;;5074166;28;20478;-73
2022/10/14 09:01:19;;;;;;;95.37;35.93;;;;;;;;;;5088768;28;20837;-73
2022/10/14 09:03:45;;;;;;;86.38;34.38;;;;;;;;;;5066304;28;20467;-73
2022/10/14 09:06:17;;;;;;;81.57;33.67;;;;;;;;;;5093282;28;20513;-74
2022/10/14 09:08:46;;;;;;;92.05;33.80;;;12.20;99.90;;;;;;5073923;28;20421;-74
2022/10/14 09:11:19;;;;;;;82.18;32.60;;;;;;;;;;5073870;28;20501;-74
2022/10/14 09:13:51;;;;;;;80.57;32.47;;;;;;;;;;5101787;28;21043;-75
2022/10/14 09:16:26;;;;;;;82.03;32.80;;;12.20;99.90;;;;;;5070472;28;20416;-76
2022/10/14 09:19:00;;;;;;;82.65;33.30;;;;;;;;;;5057929;28;20426;-75
2022/10/14 09:21:32;;;;;;;80.67;32.80;;;12.20;99.90;;;;;;5089646;28;20430;-75
2022/10/14 09:24:02;;;;;;;80.25;33.13;;;12.20;99.90;;;;;;5076846;28;20425;-75
2022/10/14 09:26:51;;;;;;;74.38;32.35;;;12.20;99.90;;;;;;5056883;28;20420;-75
2022/10/14 09:29:27;;;;;;;81.00;32.35;;;12.20;99.90;;;;;;5072611;28;20414;-75
2022/10/14 09:31:56;;;;;;;87.13;35.05;;;;;;;;;;5058803;28;20420;-75
2022/10/14 09:34:26;;;;;;;72.75;32.78;;;;;;;;;;5071060;28;20524;-74
2022/10/14 09:36:53;;;;;;;77.05;32.83;;;;;;;;;;5074045;28;20986;-75
2022/10/14 09:39:19;;;;;;;84.45;33.60;;;;;;;;;;5090770;28;20426;-75
2022/10/14 09:41:49;;;;;;;89.27;34.97;;;;;;;;;;5073331;28;20576;-74
2022/10/14 09:44:24;;;;;;;87.65;34.65;;;;;;;;;;5089677;28;20417;-74
2022/10/14 09:47:03;;;;;;;95.63;34.70;;;;;;;;;;5089274;28;20422;-74
2022/10/14 09:49:45;;;;;;;86.97;33.55;;;12.10;99.90;;;;;;5072716;28;20451;-74
2022/10/14 09:52:23;;;;;;;84.65;33.38;;;12.30;99.90;;;;;;5073248;28;20424;-74
2022/10/14 09:54:57;;;;;;;81.40;31.73;;;12.00;99.90;;;;;;5073751;28;20761;-74
2022/10/14 09:57:24;;;;;;;86.25;33.38;;;12.30;99.90;;;;;;5057987;28;20428;-74
2022/10/14 09:59:53;;;;;;;90.35;33.63;;;;;;;;;;5073822;28;20770;-74
2022/10/14 10:02:25;;;;;;;83.15;31.52;;;;;;;;;;5103469;28;20457;-74
2022/10/14 10:04:53;;;;;;;73.93;29.38;;;;;;;;;;5072669;28;20445;-74
2022/10/14 10:07:30;;;;;;;72.38;29.00;;;;;;;;;;5070466;28;20971;-76
2022/10/14 10:10:04;;;;;;;63.47;25.95;;;12.50;99.90;;;;;;5068378;28;20442;-76
2022/10/14 10:12:34;;;;;;;61.17;26.52;;;;;;;;;;5070117;28;20518;-75
2022/10/14 10:15:03;;;;;;;63.03;26.08;;;12.60;99.90;;;;;;5060593;28;20495;-75
2022/10/14 10:17:34;;;;;;;55.90;24.33;;;;;;;;;;5086790;28;20476;-75
2022/10/14 10:20:06;;;;;;;61.05;25.77;;;;;;;;;;5073103;28;20596;-76
2022/10/14 10:22:35;;;;;;;63.40;25.80;;;;;;;;;;5072551;28;20418;-74
2022/10/14 10:25:05;;;;;;;53.78;24.45;;;;;;;;;;5051389;28;20421;-75
2022/10/14 10:27:50;;;;;;;59.85;25.55;;;;;;;;;;5070646;28;20422;-73
2022/10/14 10:30:28;;;;;;;57.33;24.33;;;;;;;;;;5068581;28;20925;-74
2022/10/14 10:32:57;;;;;;;57.20;23.70;;;;;;;;;;5065989;28;20490;-74
2022/10/14 10:35:42;;;;;;;52.90;22.33;;;;;;;;;;5067193;28;20480;-75
2022/10/14 10:38:14;;;;;;;58.03;22.33;;;;;;;;;;5070828;28;20925;-75
2022/10/14 10:41:16;;;;;;;42.08;18.98;;;12.70;99.90;;;;;;5070821;28;20480;-75
2022/10/14 10:43:58;;;;;;;118.68;24.20;;;;;;;;;;5056359;28;20529;-74
2022/10/14 10:46:24;;;;;;;50.72;20.95;;;;;;;;;;5070868;28;20422;-74
2022/10/14 10:48:54;;;;;;;98.35;25.83;;;;;;;;;;5074900;28;20414;-74
2022/10/14 10:51:26;;;;;;;54.40;22.27;;;;;;;;;;5071215;28;20504;-75
2022/10/14 10:54:01;;;;;;;60.33;22.00;;;;;;;;;;5084637;28;20814;-75
2022/10/14 10:56:39;;;;;;;56.38;21.77;;;13.00;99.90;;;;;;5072892;28;20425;-75
2022/10/14 10:59:08;;;;;;;44.03;19.07;;;;;;;;;;5071641;28;21040;-75
2022/10/14 11:01:37;;;;;;;41.83;19.98;;;12.80;99.90;;;;;;5069007;28;20433;-74
2022/10/14 11:04:41;;;;;;;44.33;19.20;;;12.80;99.90;;;;;;5064573;28;20449;-74
2022/10/14 11:13:11;;;;;;;38.88;17.00;;;12.80;99.90;;;;;;5070409;28;20443;-75
2022/10/14 11:15:37;;;;;;;39.70;18.20;;;;;;;;;;5061688;28;21010;-75
2022/10/14 11:18:13;;;;;;;34.70;16.40;;;12.80;99.90;;;;;;5072518;28;20434;-75
2022/10/14 11:21:09;;;;;;;38.42;17.48;;;12.80;99.90;;;;;;5055028;28;20426;-73
2022/10/14 11:23:38;;;;;;;36.53;16.98;;;;;;;;;;5062206;28;20424;-75
2022/10/14 11:26:52;;;;;;;33.92;15.57;;;13.30;99.90;;;;;;5086130;28;20429;-75
2022/10/14 11:29:19;;;;;;;40.63;17.20;;;;;;;;;;5053394;28;20429;-76
2022/10/14 11:32:03;;;;;;;36.17;15.80;;;13.10;99.90;;;;;;5055698;28;20398;-76
2022/10/14 11:34:38;;;;;;;30.75;14.80;;;;;;;;;;5107133;28;20924;-75
2022/10/14 11:37:20;;;;;;;31.00;14.90;;;;;;;;;;5072437;28;20990;-74
2022/10/14 11:39:58;;;;;;;28.48;14.15;;;;;;;;;;5077020;28;20473;-75
2022/10/14 11:42:37;;;;;;;27.23;12.90;;;;;;;;;;5076670;28;20410;-75
2022/10/14 11:45:32;;;;;;;27.50;13.57;;;13.20;99.90;;;;;;5076149;28;20755;-75
2022/10/14 11:48:04;;;;;;;25.67;12.63;;;;;;;;;;5090349;28;20789;-75
2022/10/14 11:50:33;;;;;;;26.87;13.03;;;;;;;;;;5059735;28;20999;-75
2022/10/14 11:53:18;;;;;;;28.10;13.15;;;;;;;;;;5095866;28;20804;-75
2022/10/14 11:56:28;;;;;;;24.67;11.67;;;13.00;99.90;;;;;;5062979;28;20422;-75
2022/10/14 11:58:58;;;;;;;20.80;11.00;;;;;;;;;;5025360;28;20431;-75
2022/10/14 12:01:29;;;;;;;23.55;11.50;;;;;;;;;;5057612;28;20441;-76
2022/10/14 12:04:06;;;;;;;25.45;12.38;;;;;;;;;;5069519;28;20965;-75
2022/10/14 12:06:40;;;;;;;24.05;11.98;;;;;;;;;;5076015;28;20422;-74
2022/10/14 12:09:26;;;;;;;25.38;12.43;;;13.10;99.90;;;;;;5103218;28;20456;-75
2022/10/14 12:11:57;;;;;;;25.47;12.23;;;;;;;;;;5059976;28;20418;-75
2022/10/14 12:14:37;;;;;;;22.33;11.23;;;13.50;99.90;;;;;;5091392;28;20829;-74
2022/10/14 12:17:25;;;;;;;22.33;11.13;;;13.50;99.90;;;;;;5107772;28;20426;-76
2022/10/14 12:19:51;;;;;;;23.95;11.82;;;;;;;;;;5029261;28;20430;-75
2022/10/14 12:22:30;;;;;;;29.17;13.30;;;;;;;;;;5073636;28;20500;-75
2022/10/14 12:25:02;;;;;;;27.60;12.50;;;13.30;99.90;;;;;;5074853;28;20471;-76
2022/10/14 12:27:29;;;;;;;29.33;13.40;;;13.20;99.90;;;;;;5074141;28;20425;-75
2022/10/14 12:29:58;;;;;;;36.10;14.68;;;;;;;;;;5085080;28;20432;-75
2022/10/14 12:32:26;;;;;;;33.20;14.40;;;13.20;99.90;;;;;;5057562;28;20420;-75
2022/10/14 12:34:56;;;;;;;37.20;15.23;;;13.40;99.90;;;;;;5074238;28;20426;-75
2022/10/14 12:37:33;;;;;;;34.25;14.80;;;13.20;99.90;;;;;;5088238;28;20414;-74
2022/10/14 12:40:02;;;;;;;31.55;14.90;;;;;;;;;;5074306;28;20448;-75
2022/10/14 12:42:29;;;;;;;34.50;15.47;;;;;;;;;;5058890;28;20413;-75
2022/10/14 12:45:01;;;;;;;36.90;16.55;;;13.50;99.90;;;;;;5071471;28;20425;-75
2022/10/14 12:47:28;;;;;;;35.92;16.50;;;;;;;;;;5072633;28;20800;-75
2022/10/14 12:50:01;;;;;;;32.65;16.52;;;13.30;99.90;;;;;;5074684;28;21146;-75
2022/10/14 12:52:32;;;;;;;37.40;18.15;;;13.60;99.90;;;;;;5090903;28;20410;-75
2022/10/14 12:55:03;;;;;;;41.90;19.23;;;;;;;;;;5070036;28;20444;-75
2022/10/14 12:57:32;;;;;;;46.00;19.02;;;13.40;99.90;;;;;;5055355;28;20531;-75
2022/10/14 13:00:12;;;;;;;44.20;20.13;;;13.50;99.90;;;;;;5105277;28;20482;-74
2022/10/14 13:02:44;;;;;;;51.80;22.40;;;;;;;;;;5059033;28;20422;-75
2022/10/14 13:05:23;;;;;;;51.47;22.17;;;13.70;99.90;;;;;;5058650;28;20417;-74
2022/10/14 13:08:22;;;;;;;57.83;23.88;;;13.40;99.90;;;;;;5075844;28;20417;-79
2022/10/14 13:10:49;;;;;;;63.80;25.30;;;;;;;;;;5059562;28;20421;-80
2022/10/14 13:13:51;;;;;;;63.20;24.23;;;13.80;99.90;;;;;;5076774;28;20394;-79
2022/10/14 13:16:19;;;;;;;66.13;25.58;;;13.60;99.90;;;;;;5076208;28;20408;-81
2022/10/14 13:18:45;;;;;;;85.35;29.00;;;;;;;;;;5075839;28;20398;-80
2022/10/14 13:21:29;;;;;;;83.20;29.67;;;;;;;;;;5075652;28;20402;-80
2022/10/14 13:23:57;;;;;;;91.10;30.20;;;;;;;;;;5075962;28;20406;-81
2022/10/14 13:26:34;;;;;;;73.57;27.98;;;13.80;99.90;;;;;;5075448;28;20418;-80
2022/10/14 13:29:18;;;;;;;74.75;27.90;;;14.00;99.90;;;;;;5092323;28;20504;-80
2022/10/14 13:31:44;;;;;;;72.60;28.02;;;;;;;;;;5075607;28;20417;-81
2022/10/14 13:34:28;;;;;;;65.75;26.95;;;13.80;99.90;;;;;;5075773;28;20402;-80
2022/10/14 13:37:16;;;;;;;75.55;28.73;;;;;;;;;;5075182;28;20415;-80
2022/10/14 13:39:42;;;;;;;71.75;29.75;;;14.00;99.90;;;;;;5075067;28;20398;-80
2022/10/14 13:42:15;;;;;;;72.07;29.25;;;14.10;99.90;;;;;;5109026;28;20398;-80
2022/10/14 13:44:41;;;;;;;75.80;30.02;;;;;;;;;;5075028;28;20426;-80
2022/10/14 13:47:11;;;;;;;78.20;29.67;;;;;;;;;;5041061;28;20501;-76
2022/10/14 13:49:39;;;;;;;76.97;30.20;;;;;;;;;;5074347;28;20432;-75
2022/10/14 13:52:11;;;;;;;72.50;28.83;;;14.10;99.90;;;;;;5058376;28;20731;-75
2022/10/14 13:54:37;;;;;;;69.75;28.60;;;14.30;99.90;;;;;;5058635;28;20406;-75
2022/10/14 13:57:10;;;;;;;72.85;28.58;;;;;;;;;;5091390;28;20398;-75